Time;durP1;ratioP1;P1;durP2;ratioP2;P2;SDS_P1;SDS_P2;PMS_P1;PMS_P2;Temp;Humidity;BMP_temperature;BMP_pressure;BME280_temperature;BME280_humidity;BME280_pressure;Samples;Min_cycle;Max_cycle;Signal;HPM_P1;HPM_P2
2023/05/25 00:00:08;;;;;;;6.63;4.75;;;10.70;99.90;;;;;;5072513;28;20414;-78
2023/05/25 00:02:34;;;;;;;5.90;4.30;;;10.70;99.90;;;;;;5072493;28;20399;-77
2023/05/25 00:05:01;;;;;;;7.70;4.80;;;10.80;99.90;;;;;;5065983;28;20390;-78
2023/05/25 00:07:26;;;;;;;6.80;4.50;;;10.90;99.90;;;;;;5092271;28;20377;-78
2023/05/25 00:09:52;;;;;;;6.87;5.40;;;11.00;99.90;;;;;;5092944;28;20389;-78
2023/05/25 00:12:17;;;;;;;8.60;4.80;;;10.90;99.90;;;;;;5093338;28;20409;-78
2023/05/25 00:14:43;;;;;;;4.63;4.10;;;11.00;99.90;;;;;;5087574;28;20898;-78
2023/05/25 00:17:09;;;;;;;5.10;4.50;;;11.00;99.90;;;;;;5071491;28;20376;-78
2023/05/25 00:19:35;;;;;;;6.07;4.57;;;11.00;99.90;;;;;;5072218;28;21119;-77
2023/05/25 00:22:01;;;;;;;5.10;4.20;;;11.00;99.90;;;;;;5089436;28;20826;-77
2023/05/25 00:24:29;;;;;;;6.63;4.90;;;11.10;99.90;;;;;;5092699;28;20374;-77
2023/05/25 00:26:55;;;;;;;8.27;4.35;;;11.10;99.90;;;;;;5092764;28;20388;-77
2023/05/25 00:29:21;;;;;;;6.95;4.20;;;11.00;99.90;;;;;;5093148;28;20378;-77
2023/05/25 00:31:48;;;;;;;8.50;3.83;;;11.20;99.90;;;;;;5060271;28;20848;-78
2023/05/25 00:34:14;;;;;;;5.45;3.90;;;11.20;99.90;;;;;;5072284;28;20414;-77
2023/05/25 00:36:42;;;;;;;5.82;4.00;;;11.00;99.90;;;;;;5072770;28;20376;-77
2023/05/25 00:39:08;;;;;;;6.65;4.10;;;11.10;99.90;;;;;;5073059;28;20768;-77
2023/05/25 00:41:37;;;;;;;6.78;3.75;;;10.90;99.90;;;;;;5091869;28;20397;-78
2023/05/25 00:44:03;;;;;;;5.22;4.00;;;10.90;99.90;;;;;;5092139;28;20744;-77
2023/05/25 00:46:28;;;;;;;6.15;4.30;;;10.90;99.90;;;;;;5092297;28;20386;-78
2023/05/25 00:48:55;;;;;;;7.20;3.80;;;10.90;99.90;;;;;;5074056;28;20797;-77
2023/05/25 00:51:21;;;;;;;5.63;3.50;;;10.90;99.90;;;;;;5070654;28;20409;-77
2023/05/25 00:53:46;;;;;;;5.30;3.40;;;10.80;99.90;;;;;;5091782;28;20393;-77
2023/05/25 00:56:21;;;;;;;6.40;3.57;;;10.80;99.90;;;;;;5072981;28;20402;-77
2023/05/25 00:58:52;;;;;;;6.13;3.85;;;10.90;99.90;;;;;;5073683;28;20381;-77
2023/05/25 01:01:20;;;;;;;4.50;3.40;;;10.90;99.90;;;;;;5072738;28;20918;-77
2023/05/25 01:03:52;;;;;;;4.25;3.85;;;10.90;99.90;;;;;;5073841;28;20421;-77
2023/05/25 01:06:21;;;;;;;4.38;3.67;;;10.90;99.90;;;;;;5054049;28;20453;-78
2023/05/25 01:08:51;;;;;;;4.47;4.00;;;11.00;99.90;;;;;;5073915;28;20383;-77
2023/05/25 01:11:20;;;;;;;7.30;4.00;;;11.10;99.90;;;;;;5091700;28;20386;-77
2023/05/25 01:13:48;;;;;;;4.97;3.90;;;11.10;99.90;;;;;;5092057;28;20869;-77
2023/05/25 01:16:15;;;;;;;4.90;3.78;;;11.20;99.90;;;;;;5091306;28;20420;-77
2023/05/25 01:18:41;;;;;;;5.00;4.00;;;11.40;99.90;;;;;;5092464;28;20378;-78
2023/05/25 01:21:25;;;;;;;4.80;3.53;;;11.50;99.90;;;;;;5071415;28;20418;-77
2023/05/25 01:24:21;;;;;;;5.20;4.20;;;11.60;99.90;;;;;;5053604;28;20396;-77
2023/05/25 01:26:53;;;;;;;4.53;3.42;;;11.60;99.90;;;;;;5077223;28;20480;-77
2023/05/25 01:29:21;;;;;;;4.68;3.40;;;11.50;99.90;;;;;;5091187;28;20378;-77
2023/05/25 01:31:47;;;;;;;3.60;3.30;;;11.50;99.90;;;;;;5091456;28;20414;-77
2023/05/25 01:34:14;;;;;;;6.28;3.17;;;11.50;99.90;;;;;;5092013;28;20486;-78
2023/05/25 01:36:40;;;;;;;7.00;3.40;;;11.70;99.90;;;;;;5085038;28;20407;-77
2023/05/25 01:39:06;;;;;;;3.97;2.90;;;11.70;99.90;;;;;;5053343;28;20388;-77
2023/05/25 01:41:31;;;;;;;8.15;2.78;;;11.70;99.90;;;;;;5062691;28;20765;-78
2023/05/25 01:43:57;;;;;;;4.97;2.97;;;11.80;99.90;;;;;;5092924;28;20374;-77
2023/05/25 01:46:35;;;;;;;7.33;2.50;;;11.80;99.90;;;;;;5074302;28;20389;-77
2023/05/25 01:49:09;;;;;;;6.55;2.70;;;11.90;99.90;;;;;;5092178;28;20378;-77
2023/05/25 01:51:41;;;;;;;3.60;2.50;;;11.90;99.90;;;;;;5081749;28;20399;-77
2023/05/25 01:54:18;;;;;;;5.00;2.73;;;11.90;99.90;;;;;;5071753;28;20818;-78
2023/05/25 01:56:46;;;;;;;5.45;2.80;;;12.00;99.90;;;;;;5071309;28;20462;-78
2023/05/25 01:59:15;;;;;;;4.25;2.40;;;11.90;99.90;;;;;;5077652;28;20389;-77
2023/05/25 02:01:42;;;;;;;7.47;2.85;;;11.90;99.90;;;;;;5091113;28;20481;-77
2023/05/25 02:04:08;;;;;;;3.78;2.60;;;11.90;99.90;;;;;;5086029;28;20420;-77
2023/05/25 02:06:37;;;;;;;5.93;2.40;;;11.90;99.90;;;;;;5074153;28;20418;-78
2023/05/25 02:09:03;;;;;;;3.17;2.40;;;12.00;99.90;;;;;;5079443;28;20390;-77
2023/05/25 02:11:28;;;;;;;4.97;2.40;;;11.90;99.90;;;;;;5095567;28;20382;-77
2023/05/25 02:13:54;;;;;;;2.97;2.38;;;12.10;99.90;;;;;;5089808;28;20426;-77
2023/05/25 02:16:20;;;;;;;5.47;2.80;;;12.20;99.90;;;;;;5073839;28;20491;-77
2023/05/25 02:18:45;;;;;;;4.53;2.60;;;12.20;99.90;;;;;;5075083;28;20396;-77
2023/05/25 02:21:11;;;;;;;4.37;2.67;;;12.10;99.90;;;;;;5074493;28;21007;-77
2023/05/25 02:23:37;;;;;;;6.60;2.67;;;12.30;99.90;;;;;;5057687;28;20399;-77
2023/05/25 02:26:02;;;;;;;3.50;2.22;;;12.30;99.90;;;;;;5094115;28;20382;-77
2023/05/25 02:28:28;;;;;;;4.22;2.20;;;12.30;99.90;;;;;;5090231;28;20403;-77
2023/05/25 02:30:53;;;;;;;6.23;2.80;;;12.40;99.90;;;;;;5074436;28;20384;-77
2023/05/25 02:33:19;;;;;;;4.13;2.70;;;12.30;99.90;;;;;;5074169;28;20796;-77
2023/05/25 02:35:45;;;;;;;4.40;2.65;;;12.40;99.90;;;;;;5073707;28;20395;-78
2023/05/25 02:38:10;;;;;;;4.60;2.42;;;12.40;99.90;;;;;;5057737;28;20418;-78
2023/05/25 02:40:36;;;;;;;4.97;2.60;;;12.40;99.90;;;;;;5094082;28;20378;-77
2023/05/25 02:43:01;;;;;;;5.13;2.60;;;12.30;99.90;;;;;;5094235;28;20469;-78
2023/05/25 02:45:27;;;;;;;3.00;2.30;;;12.30;99.90;;;;;;5058758;28;20399;-77
2023/05/25 02:47:52;;;;;;;4.28;2.50;;;12.20;99.90;;;;;;5073806;28;20785;-77
2023/05/25 02:50:18;;;;;;;8.90;2.90;;;12.20;99.90;;;;;;5056035;28;20383;-78
2023/05/25 02:52:43;;;;;;;4.97;2.30;;;12.10;99.90;;;;;;5074195;28;20383;-78
2023/05/25 02:55:12;;;;;;;3.42;2.60;;;12.20;99.90;;;;;;5086717;28;20458;-77
2023/05/25 02:57:37;;;;;;;5.78;2.90;;;12.10;99.90;;;;;;5090158;28;20399;-77
2023/05/25 03:00:05;;;;;;;6.47;2.67;;;12.10;99.90;;;;;;5073497;28;20380;-77
2023/05/25 03:02:31;;;;;;;4.45;3.05;;;12.00;99.90;;;;;;5074094;28;20757;-78
2023/05/25 03:04:57;;;;;;;5.55;2.70;;;11.90;99.90;;;;;;5067383;28;20443;-77
2023/05/25 03:07:25;;;;;;;4.20;2.67;;;12.00;99.90;;;;;;5074257;28;20444;-77
2023/05/25 03:09:51;;;;;;;5.88;2.55;;;12.00;99.90;;;;;;5094122;28;20782;-78
2023/05/25 03:12:16;;;;;;;4.60;2.78;;;12.00;99.90;;;;;;5070320;28;20398;-78
2023/05/25 03:14:42;;;;;;;5.60;2.87;;;12.10;99.90;;;;;;5073737;28;20801;-78
2023/05/25 03:17:07;;;;;;;5.20;2.57;;;12.00;99.90;;;;;;5071975;28;20884;-77
2023/05/25 03:19:33;;;;;;;4.20;2.63;;;12.10;99.90;;;;;;5073660;28;20413;-77
2023/05/25 03:21:59;;;;;;;5.70;2.90;;;12.10;99.90;;;;;;5075426;28;20428;-78
2023/05/25 03:24:25;;;;;;;4.47;2.90;;;12.30;99.90;;;;;;5094145;28;20403;-77
2023/05/25 03:26:51;;;;;;;5.85;3.20;;;12.30;99.90;;;;;;5093640;28;20393;-78
2023/05/25 03:29:16;;;;;;;3.70;2.60;;;12.60;99.90;;;;;;5075917;28;20378;-77
2023/05/25 03:31:42;;;;;;;5.00;3.00;;;12.60;99.90;;;;;;5093548;28;20499;-77
2023/05/25 03:34:07;;;;;;;6.47;3.10;;;12.60;99.90;;;;;;5075900;28;20382;-77
2023/05/25 03:36:33;;;;;;;6.93;2.80;;;12.60;99.90;;;;;;5093032;28;20401;-78
2023/05/25 03:38:59;;;;;;;5.73;3.30;;;12.60;99.90;;;;;;5093282;28;20423;-77
2023/05/25 03:41:25;;;;;;;5.10;2.50;;;12.70;99.90;;;;;;5072514;28;20439;-77
2023/05/25 03:43:51;;;;;;;6.00;3.50;;;12.70;99.90;;;;;;5073244;28;20417;-77
2023/05/25 03:46:16;;;;;;;5.93;3.05;;;12.70;99.90;;;;;;5089315;28;20402;-77
2023/05/25 03:48:42;;;;;;;6.27;3.07;;;12.70;99.90;;;;;;5075679;28;20469;-78
2023/05/25 03:51:08;;;;;;;6.15;3.25;;;12.80;99.90;;;;;;5066853;28;20394;-78
2023/05/25 03:53:33;;;;;;;5.22;3.10;;;12.70;99.90;;;;;;5082925;28;20373;-78
2023/05/25 03:55:59;;;;;;;5.23;2.93;;;12.70;99.90;;;;;;5064036;28;20850;-77
2023/05/25 03:58:25;;;;;;;4.22;2.90;;;12.70;99.90;;;;;;5081609;28;20895;-77
2023/05/25 04:00:51;;;;;;;6.07;2.70;;;12.70;99.90;;;;;;5083788;28;20810;-77
2023/05/25 04:03:17;;;;;;;6.13;2.90;;;12.50;99.90;;;;;;5082013;28;20441;-78
2023/05/25 04:05:44;;;;;;;4.20;2.50;;;12.20;99.90;;;;;;5082756;28;20403;-78
2023/05/25 04:08:13;;;;;;;5.68;2.60;;;12.00;99.90;;;;;;5080896;28;20502;-77
2023/05/25 04:10:38;;;;;;;5.00;2.70;;;12.00;99.90;;;;;;5063077;28;20509;-78
2023/05/25 04:13:04;;;;;;;4.75;2.80;;;12.00;99.90;;;;;;5066310;28;20462;-78
2023/05/25 04:15:29;;;;;;;5.93;3.13;;;11.80;99.90;;;;;;5083220;28;20450;-77
2023/05/25 04:17:58;;;;;;;6.73;2.80;;;11.80;99.90;;;;;;5082824;28;20457;-78
2023/05/25 04:20:23;;;;;;;7.03;3.15;;;11.90;99.90;;;;;;5063895;28;20398;-78
2023/05/25 04:22:49;;;;;;;5.10;2.92;;;11.80;99.90;;;;;;5083379;28;20396;-77
2023/05/25 04:25:15;;;;;;;7.57;3.50;;;11.90;99.90;;;;;;5085095;28;20779;-78
2023/05/25 04:27:41;;;;;;;5.82;3.08;;;11.90;99.90;;;;;;5072905;28;20395;-78
2023/05/25 04:30:07;;;;;;;5.57;3.35;;;11.90;99.90;;;;;;5085814;28;20394;-77
2023/05/25 04:32:36;;;;;;;8.48;3.00;;;11.80;99.90;;;;;;5084382;28;20428;-77
2023/05/25 04:35:02;;;;;;;5.68;3.50;;;11.60;99.90;;;;;;5069284;28;20452;-77
2023/05/25 04:37:29;;;;;;;5.25;2.95;;;11.70;99.90;;;;;;5085855;28;20380;-77
2023/05/25 04:39:56;;;;;;;5.60;2.80;;;11.70;99.90;;;;;;5062232;28;20391;-78
2023/05/25 04:42:22;;;;;;;6.05;3.15;;;11.60;99.90;;;;;;5082714;28;20394;-78
2023/05/25 04:44:49;;;;;;;6.50;2.90;;;11.50;99.90;;;;;;5063919;28;20444;-78
2023/05/25 04:47:15;;;;;;;5.45;3.40;;;11.50;99.90;;;;;;5066015;28;20394;-77
2023/05/25 04:49:41;;;;;;;8.10;3.22;;;11.40;99.90;;;;;;5077560;28;20392;-77
2023/05/25 04:52:06;;;;;;;6.88;3.58;;;11.30;99.90;;;;;;5087807;28;20392;-77
2023/05/25 04:54:32;;;;;;;5.13;3.10;;;11.20;99.90;;;;;;5102946;28;20523;-78
2023/05/25 04:56:58;;;;;;;5.82;3.45;;;11.10;99.90;;;;;;5092052;28;20392;-77
2023/05/25 04:59:23;;;;;;;7.00;3.50;;;11.00;99.90;;;;;;5072726;28;20378;-78
2023/05/25 05:01:49;;;;;;;6.53;3.80;;;11.00;99.90;;;;;;5089163;22;20394;-85
2023/05/25 05:04:15;;;;;;;7.38;4.30;;;11.00;99.90;;;;;;5060729;28;20834;-85
2023/05/25 05:06:40;;;;;;;6.55;3.95;;;10.90;99.90;;;;;;5055374;28;20399;-86
2023/05/25 05:09:06;;;;;;;7.60;3.50;;;10.90;99.90;;;;;;5060206;28;20399;-85
2023/05/25 05:11:32;;;;;;;8.20;4.18;;;10.70;99.90;;;;;;5058665;28;20568;-86
2023/05/25 05:13:58;;;;;;;8.43;4.37;;;10.70;99.90;;;;;;5071459;28;20522;-79
2023/05/25 05:16:23;;;;;;;4.93;3.40;;;10.70;99.90;;;;;;5076435;28;20438;-79
2023/05/25 05:18:49;;;;;;;6.03;3.90;;;10.80;99.90;;;;;;5067702;28;20395;-80
2023/05/25 05:21:15;;;;;;;9.68;4.30;;;10.80;99.90;;;;;;5067269;28;20413;-81
2023/05/25 05:23:44;;;;;;;8.43;4.03;;;10.70;99.90;;;;;;5037785;28;20417;-81
2023/05/25 05:26:10;;;;;;;7.32;4.72;;;10.80;99.90;;;;;;5056400;28;20798;-81
2023/05/25 05:28:36;;;;;;;8.68;4.47;;;10.80;99.90;;;;;;5036359;28;20423;-81
2023/05/25 05:31:02;;;;;;;6.13;4.03;;;11.20;99.90;;;;;;5055535;28;20405;-84
2023/05/25 05:33:27;;;;;;;8.80;4.70;;;10.90;99.90;;;;;;5038304;28;20384;-83
2023/05/25 05:35:53;;;;;;;7.83;4.10;;;10.90;99.90;;;;;;5059692;28;20409;-86
2023/05/25 05:38:19;;;;;;;6.30;4.10;;;10.90;99.90;;;;;;5059475;28;20393;-85
2023/05/25 05:40:44;;;;;;;9.53;4.20;;;10.90;99.90;;;;;;5063503;28;20749;-85
2023/05/25 05:43:11;;;;;;;7.90;4.50;;;11.00;99.90;;;;;;5062278;28;20390;-81
2023/05/25 05:45:37;;;;;;;6.20;3.88;;;10.90;99.90;;;;;;5068672;28;20416;-83
2023/05/25 05:48:08;;;;;;;8.73;3.97;;;11.00;99.90;;;;;;5057167;28;20385;-85
2023/05/25 05:50:35;;;;;;;8.52;4.15;;;11.10;99.90;;;;;;5061206;28;20397;-85
2023/05/25 05:53:00;;;;;;;7.25;4.25;;;11.10;99.90;;;;;;5068862;28;20446;-82
2023/05/25 05:55:26;;;;;;;9.27;3.97;;;11.10;99.90;;;;;;5065460;28;20404;-83
2023/05/25 05:57:51;;;;;;;7.75;3.83;;;11.20;99.90;;;;;;5066354;28;20411;-83
2023/05/25 06:00:17;;;;;;;7.13;4.00;;;11.80;99.90;;;;;;5049471;28;20402;-83
2023/05/25 06:02:43;;;;;;;6.65;4.30;;;11.40;99.90;;;;;;5048620;28;20398;-85
2023/05/25 06:05:08;;;;;;;5.68;3.80;;;11.50;99.90;;;;;;5047439;28;20409;-83
2023/05/25 06:07:34;;;;;;;6.10;3.80;;;11.50;99.90;;;;;;5064760;28;20392;-82
2023/05/25 06:10:00;;;;;;;9.00;4.03;;;11.50;99.90;;;;;;5064167;28;20403;-82
2023/05/25 06:12:26;;;;;;;9.02;4.00;;;11.70;99.90;;;;;;5065754;28;20420;-83
2023/05/25 06:14:52;;;;;;;9.82;4.03;;;11.70;99.90;;;;;;5047952;28;20427;-83
2023/05/25 06:17:17;;;;;;;6.30;4.20;;;11.80;99.90;;;;;;5064466;28;20903;-82
2023/05/25 06:19:43;;;;;;;5.85;3.70;;;11.80;99.90;;;;;;5066931;28;20385;-83
2023/05/25 06:22:09;;;;;;;3.78;3.22;;;11.90;99.90;;;;;;5067122;28;20743;-83
2023/05/25 06:24:35;;;;;;;6.28;3.90;;;12.00;99.90;;;;;;5049132;28;20725;-83
2023/05/25 06:27:02;;;;;;;6.80;3.57;;;12.00;99.90;;;;;;5070368;28;20420;-83
2023/05/25 06:29:27;;;;;;;6.07;3.65;;;12.10;99.90;;;;;;5069308;28;20875;-82
2023/05/25 06:31:53;;;;;;;6.70;3.40;;;12.20;99.90;;;;;;5050581;28;20389;-83
2023/05/25 06:34:19;;;;;;;6.75;3.80;;;12.10;99.90;;;;;;5068056;28;20414;-83
2023/05/25 06:36:45;;;;;;;7.33;4.30;;;12.20;99.90;;;;;;5065952;28;20408;-83
2023/05/25 06:39:11;;;;;;;9.40;4.28;;;12.20;99.90;;;;;;5050907;28;20818;-85
2023/05/25 06:41:39;;;;;;;6.22;3.70;;;12.30;99.90;;;;;;5050444;28;20461;-82
2023/05/25 06:44:08;;;;;;;5.93;3.15;;;12.30;99.90;;;;;;5069537;28;20389;-84
2023/05/25 06:46:35;;;;;;;8.35;4.63;;;12.20;99.90;;;;;;5067956;28;20480;-85
2023/05/25 06:49:01;;;;;;;6.70;3.90;;;12.30;99.90;;;;;;5052576;28;20385;-83
2023/05/25 06:51:26;;;;;;;5.55;3.97;;;12.50;99.90;;;;;;5066469;28;20930;-83
2023/05/25 06:53:55;;;;;;;7.30;4.22;;;12.50;99.90;;;;;;5047824;28;20386;-84
2023/05/25 06:56:21;;;;;;;6.15;3.58;;;12.50;99.90;;;;;;5063825;28;20425;-84
2023/05/25 06:58:50;;;;;;;8.05;4.50;;;12.60;99.90;;;;;;5064944;28;20393;-84
2023/05/25 07:01:16;;;;;;;9.82;3.78;;;12.60;99.90;;;;;;5048568;28;20413;-87
2023/05/25 07:03:42;;;;;;;5.60;3.78;;;12.70;99.90;;;;;;5066534;28;20424;-85
2023/05/25 07:06:10;;;;;;;6.13;3.80;;;12.80;99.90;;;;;;5043391;28;20386;-83
2023/05/25 07:08:35;;;;;;;7.32;4.40;;;12.80;99.90;;;;;;5048180;28;20663;-85
2023/05/25 07:11:01;;;;;;;8.38;4.22;;;12.90;99.90;;;;;;5065910;28;20673;-84
2023/05/25 07:13:26;;;;;;;6.57;3.97;;;13.00;99.90;;;;;;5047325;28;20924;-85
2023/05/25 07:15:51;;;;;;;8.53;4.33;;;13.10;99.90;;;;;;5065101;28;20508;-83
2023/05/25 07:18:17;;;;;;;6.00;3.80;;;13.20;99.90;;;;;;5064676;28;20472;-84
2023/05/25 07:20:43;;;;;;;7.00;4.40;;;13.30;99.90;;;;;;5045975;28;20500;-84
2023/05/25 07:23:09;;;;;;;9.05;4.60;;;13.40;99.90;;;;;;5065511;28;20489;-82
2023/05/25 07:25:36;;;;;;;6.63;4.20;;;13.40;99.90;;;;;;5075234;28;20369;-83
2023/05/25 07:28:02;;;;;;;5.00;4.28;;;13.40;99.90;;;;;;5054443;28;20393;-84
2023/05/25 07:30:27;;;;;;;7.30;4.63;;;13.60;99.90;;;;;;5049230;28;20385;-84
2023/05/25 07:32:53;;;;;;;7.68;4.35;;;13.70;99.90;;;;;;5048144;28;20385;-84
2023/05/25 07:35:18;;;;;;;7.13;4.37;;;13.90;99.90;;;;;;5064122;28;20413;-83
2023/05/25 07:37:44;;;;;;;7.77;4.20;;;14.00;99.90;;;;;;5045769;28;20412;-84
2023/05/25 07:40:10;;;;;;;6.38;4.00;;;14.20;99.90;;;;;;5048839;28;20428;-85
2023/05/25 07:42:35;;;;;;;6.43;4.07;;;14.00;99.90;;;;;;5064575;28;20416;-84
2023/05/25 07:45:01;;;;;;;6.28;4.70;;;14.10;99.90;;;;;;5063323;28;20405;-84
2023/05/25 07:47:27;;;;;;;8.15;4.10;;;14.10;99.90;;;;;;5046899;28;20386;-83
2023/05/25 07:49:53;;;;;;;7.03;3.72;;;14.30;99.90;;;;;;5064371;28;20508;-85
2023/05/25 07:52:23;;;;;;;6.45;4.25;;;14.50;99.90;;;;;;5064566;28;20496;-84
2023/05/25 07:54:48;;;;;;;8.77;4.18;;;14.60;99.90;;;;;;5047853;28;20437;-82
2023/05/25 07:57:14;;;;;;;6.93;4.05;;;14.70;99.90;;;;;;5064135;28;20435;-81
2023/05/25 07:59:40;;;;;;;7.63;4.63;;;14.70;99.90;;;;;;5046558;28;20400;-83
2023/05/25 08:02:05;;;;;;;7.45;4.50;;;14.80;99.90;;;;;;5045657;28;20413;-83
2023/05/25 08:04:32;;;;;;;8.50;4.10;;;15.00;99.90;;;;;;5062980;28;20425;-84
2023/05/25 08:06:58;;;;;;;7.50;4.30;;;15.20;99.90;;;;;;5063283;28;20760;-82
2023/05/25 08:09:23;;;;;;;7.40;4.60;;;15.10;99.90;;;;;;5044736;28;20397;-82
2023/05/25 08:11:49;;;;;;;7.97;3.73;;;15.20;99.90;;;;;;5064654;28;20397;-83
2023/05/25 08:14:15;;;;;;;5.72;3.83;;;15.30;99.90;;;;;;5061787;28;20388;-83
2023/05/25 08:16:40;;;;;;;7.00;3.72;;;15.40;99.90;;;;;;5063176;28;20420;-84
2023/05/25 08:19:06;;;;;;;5.57;4.20;;;15.40;99.90;;;;;;5062950;28;20773;-83
2023/05/25 08:21:33;;;;;;;8.77;4.40;;;15.50;99.90;;;;;;5063047;28;20469;-83
2023/05/25 08:24:02;;;;;;;6.53;4.28;;;15.80;99.90;;;;;;5043261;28;20478;-83
2023/05/25 08:26:29;;;;;;;8.35;4.40;;;15.80;99.90;;;;;;5061974;28;20397;-83
2023/05/25 08:28:55;;;;;;;7.45;4.55;;;15.90;99.90;;;;;;5044846;28;20776;-82
2023/05/25 08:31:21;;;;;;;7.35;4.72;;;16.00;99.90;;;;;;5063389;28;20394;-83
2023/05/25 08:33:46;;;;;;;8.17;4.40;;;17.50;99.90;;;;;;5061811;28;20487;-83
2023/05/25 08:36:12;;;;;;;6.17;4.50;;;16.30;99.90;;;;;;5043736;28;20412;-82
2023/05/25 08:38:37;;;;;;;6.45;4.60;;;16.00;99.90;;;;;;5044645;28;20397;-83
2023/05/25 08:41:05;;;;;;;8.13;4.13;;;16.10;99.90;;;;;;5061921;28;20461;-83
2023/05/25 08:43:31;;;;;;;6.88;4.38;;;16.10;99.90;;;;;;5043545;28;20401;-83
2023/05/25 08:46:05;;;;;;;7.90;4.60;;;16.00;99.90;;;;;;5043417;28;20382;-83
2023/05/25 08:48:36;;;;;;;6.13;4.30;;;15.90;99.90;;;;;;5042090;28;20743;-83
2023/05/25 08:51:06;;;;;;;9.80;4.60;;;16.10;99.90;;;;;;5059602;28;20953;-83
2023/05/25 08:53:35;;;;;;;6.10;4.28;;;16.50;99.90;;;;;;5058592;28;21081;-83
2023/05/25 08:56:25;;;;;;;6.18;4.50;;;16.90;99.90;;;;;;5057256;28;20942;-83
2023/05/25 08:59:08;;;;;;;5.67;4.53;;;17.10;99.90;;;;;;5040550;28;20952;-82
2023/05/25 09:01:38;;;;;;;6.90;4.60;;;17.30;99.90;;;;;;5041050;28;20393;-83
2023/05/25 09:04:04;;;;;;;5.97;4.85;;;17.30;99.90;;;;;;5040432;28;20438;-83
2023/05/25 09:06:29;;;;;;;5.90;4.90;;;17.60;99.90;;;;;;5058324;28;20397;-82
2023/05/25 09:08:55;;;;;;;4.70;4.10;;;18.80;99.90;;;;;;5059357;28;20385;-82
2023/05/25 09:11:21;;;;;;;5.10;4.60;;;18.20;99.90;;;;;;5041375;28;20444;-82
2023/05/25 09:13:47;;;;;;;6.22;4.90;;;18.40;99.90;;;;;;5058938;28;20443;-81
2023/05/25 09:16:13;;;;;;;5.20;4.80;;;18.20;99.90;;;;;;5067692;28;20780;-79
2023/05/25 09:18:39;;;;;;;5.68;4.60;;;18.50;99.90;;;;;;5055904;28;20396;-80
2023/05/25 09:21:04;;;;;;;6.78;4.72;;;18.70;99.90;;;;;;5056299;28;20497;-80
2023/05/25 09:23:30;;;;;;;4.75;4.20;;;18.90;99.90;;;;;;5051493;28;20404;-83
2023/05/25 09:25:57;;;;;;;5.50;5.00;;;19.10;99.90;;;;;;5060212;28;20386;-83
2023/05/25 09:28:22;;;;;;;5.07;4.43;;;19.00;99.90;;;;;;5061533;28;20464;-84
2023/05/25 09:30:48;;;;;;;6.10;4.70;;;19.00;99.90;;;;;;5041924;28;20417;-83
2023/05/25 09:33:17;;;;;;;5.13;4.67;;;18.90;99.90;;;;;;5041511;28;20488;-83
2023/05/25 09:35:44;;;;;;;6.85;5.10;;;18.90;99.90;;;;;;5058255;28;20439;-81
2023/05/25 09:38:13;;;;;;;4.90;4.40;;;18.90;99.90;;;;;;5043221;28;20491;-83
2023/05/25 09:40:40;;;;;;;5.88;4.45;;;19.10;99.90;;;;;;5058644;28;20394;-83
2023/05/25 09:43:06;;;;;;;5.28;4.18;;;19.30;99.90;;;;;;5057369;28;20897;-81
2023/05/25 09:45:31;;;;;;;6.00;4.70;;;19.40;99.90;;;;;;5057320;28;20484;-82
2023/05/25 09:47:58;;;;;;;5.50;4.33;;;19.30;99.90;;;;;;5040510;28;20415;-83
2023/05/25 09:50:27;;;;;;;5.00;4.47;;;19.20;99.90;;;;;;5040874;28;20412;-82
2023/05/25 09:52:57;;;;;;;5.30;4.80;;;19.40;99.90;;;;;;5039300;28;20401;-83
2023/05/25 09:55:22;;;;;;;5.32;4.50;;;19.10;99.90;;;;;;5039771;28;20488;-83
2023/05/25 09:57:53;;;;;;;4.57;4.17;;;19.20;99.90;;;;;;5058619;28;20440;-83
2023/05/25 10:00:18;;;;;;;4.03;3.72;;;19.60;99.90;;;;;;5064576;28;20365;-79
2023/05/25 10:02:44;;;;;;;4.83;4.33;;;19.80;99.90;;;;;;5072714;28;20439;-80
2023/05/25 10:05:09;;;;;;;4.15;3.75;;;20.10;99.90;;;;;;5071503;28;20424;-80
2023/05/25 10:07:37;;;;;;;4.07;3.67;;;20.40;99.90;;;;;;5067855;28;20397;-83
2023/05/25 10:10:06;;;;;;;5.47;3.90;;;20.00;99.90;;;;;;5062178;28;20814;-83
2023/05/25 10:12:32;;;;;;;4.50;3.80;;;20.00;99.90;;;;;;5044225;28;20490;-82
2023/05/25 10:15:03;;;;;;;4.33;3.47;;;19.90;99.90;;;;;;5058943;28;20416;-82
2023/05/25 10:17:31;;;;;;;4.60;3.95;;;19.40;99.90;;;;;;5059066;28;20765;-83
2023/05/25 10:19:59;;;;;;;4.10;3.70;;;19.60;99.90;;;;;;5059283;28;21118;-82
2023/05/25 10:22:31;;;;;;;3.90;3.50;;;19.50;99.90;;;;;;5043732;28;20389;-82
2023/05/25 10:25:14;;;;;;;4.95;3.78;;;19.70;99.90;;;;;;5040329;28;20420;-82
2023/05/25 10:27:42;;;;;;;4.10;3.70;;;19.70;99.90;;;;;;5059369;28;20398;-83
2023/05/25 10:30:09;;;;;;;4.53;4.05;;;19.30;99.90;;;;;;5037180;28;20397;-80
2023/05/25 10:32:37;;;;;;;3.72;3.42;;;19.60;99.90;;;;;;5054832;28;20409;-80
2023/05/25 10:35:05;;;;;;;4.73;4.23;;;19.40;99.90;;;;;;5049578;28;20414;-83
2023/05/25 10:37:32;;;;;;;4.25;3.78;;;19.40;99.90;;;;;;5041401;28;20400;-82
2023/05/25 10:40:00;;;;;;;5.45;3.90;;;19.40;99.90;;;;;;5060421;28;20385;-82
2023/05/25 10:42:28;;;;;;;4.82;3.70;;;19.40;99.90;;;;;;5060553;28;20456;-82
2023/05/25 10:44:55;;;;;;;6.45;3.60;;;19.50;99.90;;;;;;5042708;28;20895;-83
2023/05/25 10:47:24;;;;;;;4.20;3.80;;;19.80;99.90;;;;;;5041175;28;20397;-82
2023/05/25 10:49:58;;;;;;;4.70;3.90;;;20.40;99.90;;;;;;5041348;28;20390;-83
2023/05/25 10:52:31;;;;;;;5.70;3.80;;;20.50;99.90;;;;;;5041466;28;20464;-83
2023/05/25 10:55:02;;;;;;;4.68;3.47;;;20.30;99.90;;;;;;5036064;28;20409;-83
2023/05/25 10:57:28;;;;;;;3.90;3.60;;;20.30;99.90;;;;;;5040692;28;20456;-83
2023/05/25 11:00:05;;;;;;;5.00;4.20;;;20.20;99.90;;;;;;5060215;28;20378;-83
2023/05/25 11:02:52;;;;;;;5.30;3.70;;;19.90;99.90;;;;;;5086438;22;20501;-80
2023/05/25 11:05:27;;;;;;;4.40;4.00;;;19.90;99.90;;;;;;5096661;28;20776;-80
2023/05/25 11:08:04;;;;;;;4.70;3.70;;;20.50;99.90;;;;;;5099639;28;20755;-81
2023/05/25 11:10:48;;;;;;;4.03;3.72;;;20.50;99.90;;;;;;5092548;28;20488;-79
2023/05/25 11:13:39;;;;;;;4.00;3.60;;;20.50;99.90;;;;;;5101700;28;20386;-82
2023/05/25 11:16:23;;;;;;;5.40;4.10;;;20.70;99.90;;;;;;5107364;28;20401;-82
2023/05/25 11:18:57;;;;;;;5.30;4.13;;;20.80;99.90;;;;;;5086156;28;20392;-82
2023/05/25 11:21:26;;;;;;;4.22;3.53;;;21.20;99.90;;;;;;5106357;28;20386;-82
2023/05/25 11:24:05;;;;;;;4.70;4.00;;;21.60;99.90;;;;;;5114702;28;20384;-82
2023/05/25 11:26:34;;;;;;;6.05;3.85;;;21.90;99.90;;;;;;5092202;28;20386;-82
2023/05/25 11:29:14;;;;;;;5.15;3.88;;;22.10;99.90;;;;;;5095290;28;20437;-81
2023/05/25 11:31:40;;;;;;;4.90;4.40;;;22.40;99.90;;;;;;5083973;28;20419;-81
2023/05/25 11:34:06;;;;;;;6.87;5.07;;;22.50;99.90;;;;;;5079759;28;20419;-81
2023/05/25 11:36:34;;;;;;;5.63;4.38;;;22.70;99.90;;;;;;5098741;28;20409;-81
2023/05/25 11:39:02;;;;;;;5.10;4.60;;;23.90;99.90;;;;;;5078127;28;20385;-81
2023/05/25 11:41:28;;;;;;;7.60;4.80;;;22.80;99.90;;;;;;5078404;28;20386;-82
2023/05/25 11:43:53;;;;;;;6.78;5.03;;;23.20;99.90;;;;;;5097084;28;20434;-81
2023/05/25 11:46:20;;;;;;;6.10;4.10;;;23.90;99.90;;;;;;5073882;28;20406;-82
2023/05/25 11:48:53;;;;;;;4.50;4.10;;;24.90;99.90;;;;;;5059756;28;20430;-81
2023/05/25 11:51:25;;;;;;;5.43;3.70;;;25.20;99.90;;;;;;5057025;28;20388;-78
2023/05/25 11:53:50;;;;;;;3.85;3.25;;;25.40;99.90;;;;;;5085366;28;20406;-81
2023/05/25 11:56:17;;;;;;;4.38;3.50;;;25.00;99.90;;;;;;5077230;28;20414;-81
2023/05/25 11:58:44;;;;;;;3.88;3.58;;;25.40;99.90;;;;;;5091769;28;20390;-82
2023/05/25 12:01:18;;;;;;;4.15;3.63;;;24.30;99.90;;;;;;5075431;28;20409;-83
2023/05/25 12:03:48;;;;;;;4.27;3.87;;;24.30;99.90;;;;;;5068314;28;20563;-82
2023/05/25 12:06:27;;;;;;;3.90;3.38;;;25.60;99.90;;;;;;5076393;28;20483;-81
2023/05/25 12:08:54;;;;;;;3.70;3.40;;;25.30;99.90;;;;;;5066242;28;20467;-81
2023/05/25 12:11:39;;;;;;;3.95;3.58;;;24.70;99.90;;;;;;5071217;28;20437;-84
2023/05/25 12:14:06;;;;;;;4.43;3.40;;;25.00;99.90;;;;;;5069634;28;20394;-84
2023/05/25 12:16:39;;;;;;;4.00;3.05;;;25.40;99.90;;;;;;5073810;28;20467;-81
2023/05/25 12:19:06;;;;;;;3.60;3.10;;;25.40;99.90;;;;;;5089063;28;20380;-84
2023/05/25 12:21:32;;;;;;;4.25;3.53;;;25.90;99.90;;;;;;5066595;28;20409;-84
2023/05/25 12:23:59;;;;;;;3.90;3.50;;;25.20;99.90;;;;;;5075941;28;20392;-83
2023/05/25 12:26:27;;;;;;;5.35;4.40;;;24.10;99.90;;;;;;5084733;28;20397;-81
2023/05/25 12:29:08;;;;;;;4.50;3.70;;;27.50;99.90;;;;;;5077067;28;20449;-82
2023/05/25 12:31:37;;;;;;;5.00;3.80;;;25.80;99.90;;;;;;5094472;28;20385;-84
2023/05/25 12:34:09;;;;;;;6.13;4.57;;;26.10;99.90;;;;;;5079797;28;20394;-83
2023/05/25 12:36:51;;;;;;;4.65;3.60;;;25.00;99.90;;;;;;5080130;28;20417;-84
2023/05/25 12:39:29;;;;;;;6.22;4.15;;;25.60;99.90;;;;;;5085627;28;20466;-83
2023/05/25 12:41:56;;;;;;;4.13;3.42;;;26.40;99.90;;;;;;5079329;28;20390;-83
2023/05/25 12:44:32;;;;;;;3.78;3.30;;;26.10;99.90;;;;;;5113662;28;20454;-84
2023/05/25 12:47:22;;;;;;;4.30;3.30;;;25.60;99.90;;;;;;5085380;28;20414;-84
2023/05/25 12:50:14;;;;;;;5.23;3.83;;;25.10;99.90;;;;;;5055461;28;20494;-84